sensor_id;sensor_type;location;lat;lon;timestamp;pressure;altitude;pressure_sealevel;temperature;humidity
20622;BME280;10470;42.670;23.354;2022-11-30T00:00:35;94933.31;;;5.25;100.00
20622;BME280;10470;42.670;23.354;2022-11-30T00:03:01;94930.09;;;5.34;100.00
20622;BME280;10470;42.670;23.354;2022-11-30T00:05:27;94932.69;;;5.41;100.00
20622;BME280;10470;42.670;23.354;2022-11-30T00:07:52;94925.22;;;5.49;100.00
20622;BME280;10470;42.670;23.354;2022-11-30T00:10:21;94928.69;;;5.50;100.00
20622;BME280;10470;42.670;23.354;2022-11-30T00:12:47;94942.63;;;5.48;100.00
20622;BME280;10470;42.670;23.354;2022-11-30T00:15:13;94942.56;;;5.52;100.00
20622;BME280;10470;42.670;23.354;2022-11-30T00:17:42;94946.84;;;5.49;100.00
20622;BME280;10470;42.670;23.354;2022-11-30T00:20:08;94937.44;;;5.57;100.00
20622;BME280;10470;42.670;23.354;2022-11-30T00:22:34;94946.38;;;5.54;100.00
20622;BME280;10470;42.670;23.354;2022-11-30T00:24:59;94956.44;;;5.54;100.00
20622;BME280;10470;42.670;23.354;2022-11-30T00:27:30;94958.94;;;5.41;100.00
20622;BME280;10470;42.670;23.354;2022-11-30T00:29:57;94938.72;;;5.25;100.00
20622;BME280;10470;42.670;23.354;2022-11-30T00:32:22;94949.31;;;5.40;100.00
20622;BME280;10470;42.670;23.354;2022-11-30T00:34:48;94951.59;;;5.41;100.00
20622;BME280;10470;42.670;23.354;2022-11-30T00:37:13;94953.66;;;5.34;100.00
20622;BME280;10470;42.670;23.354;2022-11-30T00:39:39;94951.75;;;5.31;100.00
20622;BME280;10470;42.670;23.354;2022-11-30T00:42:04;94951.00;;;5.30;100.00
20622;BME280;10470;42.670;23.354;2022-11-30T00:44:30;94951.69;;;5.34;100.00
20622;BME280;10470;42.670;23.354;2022-11-30T00:46:55;94937.41;;;5.37;100.00
20622;BME280;10470;42.670;23.354;2022-11-30T00:49:21;94939.78;;;5.32;100.00
20622;BME280;10470;42.670;23.354;2022-11-30T00:51:46;94923.69;;;5.24;100.00
20622;BME280;10470;42.670;23.354;2022-11-30T00:54:12;94936.97;;;5.39;100.00
20622;BME280;10470;42.670;23.354;2022-11-30T00:56:37;94939.97;;;5.44;100.00
20622;BME280;10470;42.670;23.354;2022-11-30T00:59:02;94935.44;;;5.38;100.00
20622;BME280;10470;42.670;23.354;2022-11-30T01:01:28;94937.53;;;5.26;100.00
20622;BME280;10470;42.670;23.354;2022-11-30T01:03:55;94932.28;;;5.16;100.00
20622;BME280;10470;42.670;23.354;2022-11-30T01:06:21;94937.47;;;5.07;100.00
20622;BME280;10470;42.670;23.354;2022-11-30T01:08:46;94936.84;;;5.22;100.00
20622;BME280;10470;42.670;23.354;2022-11-30T01:11:19;94921.69;;;5.29;100.00
20622;BME280;10470;42.670;23.354;2022-11-30T01:13:45;94935.94;;;5.29;100.00
20622;BME280;10470;42.670;23.354;2022-11-30T01:16:14;94935.94;;;5.29;100.00
20622;BME280;10470;42.670;23.354;2022-11-30T01:18:40;94925.22;;;5.25;100.00
20622;BME280;10470;42.670;23.354;2022-11-30T01:21:07;94932.94;;;5.23;100.00
20622;BME280;10470;42.670;23.354;2022-11-30T01:23:33;94933.00;;;5.20;100.00
20622;BME280;10470;42.670;23.354;2022-11-30T01:25:59;94931.81;;;5.24;100.00
20622;BME280;10470;42.670;23.354;2022-11-30T01:28:24;94935.66;;;5.23;100.00
20622;BME280;10470;42.670;23.354;2022-11-30T01:30:58;94929.31;;;5.34;100.00
20622;BME280;10470;42.670;23.354;2022-11-30T01:33:24;94930.72;;;5.18;100.00
20622;BME280;10470;42.670;23.354;2022-11-30T01:36:09;94931.06;;;5.20;100.00
20622;BME280;10470;42.670;23.354;2022-11-30T01:38:37;94931.06;;;5.20;100.00
20622;BME280;10470;42.670;23.354;2022-11-30T01:41:04;94925.22;;;5.25;100.00
20622;BME280;10470;42.670;23.354;2022-11-30T01:43:57;94926.03;;;5.22;100.00
20622;BME280;10470;42.670;23.354;2022-11-30T01:47:02;94922.59;;;5.18;100.00
20622;BME280;10470;42.670;23.354;2022-11-30T01:49:30;94929.50;;;5.23;100.00
20622;BME280;10470;42.670;23.354;2022-11-30T01:52:02;94930.44;;;5.36;100.00
20622;BME280;10470;42.670;23.354;2022-11-30T01:54:33;94915.22;;;5.22;100.00
20622;BME280;10470;42.670;23.354;2022-11-30T01:57:10;94922.16;;;5.23;100.00
20622;BME280;10470;42.670;23.354;2022-11-30T01:59:38;94927.22;;;5.21;100.00
20622;BME280;10470;42.670;23.354;2022-11-30T02:02:04;94916.28;;;5.29;100.00
20622;BME280;10470;42.670;23.354;2022-11-30T02:04:34;94921.69;;;5.29;100.00
20622;BME280;10470;42.670;23.354;2022-11-30T02:07:02;94909.66;;;5.33;100.00
20622;BME280;10470;42.670;23.354;2022-11-30T02:09:30;94916.25;;;5.32;100.00
20622;BME280;10470;42.670;23.354;2022-11-30T02:11:59;94914.72;;;5.04;100.00
20622;BME280;10470;42.670;23.354;2022-11-30T02:14:48;94905.44;;;5.05;100.00
20622;BME280;10470;42.670;23.354;2022-11-30T02:17:27;94915.50;;;5.04;100.00
20622;BME280;10470;42.670;23.354;2022-11-30T02:31:23;94908.66;;;4.96;100.00
20622;BME280;10470;42.670;23.354;2022-11-30T02:33:52;94904.28;;;5.06;100.00
20622;BME280;10470;42.670;23.354;2022-11-30T02:36:20;94911.50;;;5.13;100.00
20622;BME280;10470;42.670;23.354;2022-11-30T02:38:47;94904.78;;;4.97;100.00
20622;BME280;10470;42.670;23.354;2022-11-30T02:41:13;94911.31;;;5.00;100.00
20622;BME280;10470;42.670;23.354;2022-11-30T02:43:38;94902.91;;;4.94;100.00
20622;BME280;10470;42.670;23.354;2022-11-30T02:46:16;94896.63;;;4.74;100.00
20622;BME280;10470;42.670;23.354;2022-11-30T02:51:39;94907.41;;;4.77;100.00
20622;BME280;10470;42.670;23.354;2022-11-30T02:54:06;94901.06;;;4.88;100.00
20622;BME280;10470;42.670;23.354;2022-11-30T02:56:32;94900.97;;;4.95;100.00
20622;BME280;10470;42.670;23.354;2022-11-30T02:58:58;94894.59;;;4.81;100.00
20622;BME280;10470;42.670;23.354;2022-11-30T03:01:23;94905.59;;;4.94;100.00
20622;BME280;10470;42.670;23.354;2022-11-30T03:03:49;94896.75;;;4.94;100.00
20622;BME280;10470;42.670;23.354;2022-11-30T03:06:14;94904.84;;;4.94;100.00
20622;BME280;10470;42.670;23.354;2022-11-30T03:08:40;94898.97;;;4.72;100.00
20622;BME280;10470;42.670;23.354;2022-11-30T03:11:05;94870.78;;;4.46;100.00
20622;BME280;10470;42.670;23.354;2022-11-30T03:13:32;94908.09;;;4.81;100.00
20622;BME280;10470;42.670;23.354;2022-11-30T03:16:05;94903.66;;;4.95;100.00
20622;BME280;10470;42.670;23.354;2022-11-30T03:18:31;94902.59;;;4.89;100.00
20622;BME280;10470;42.670;23.354;2022-11-30T03:20:56;94894.66;;;4.78;100.00
20622;BME280;10470;42.670;23.354;2022-11-30T03:23:22;94896.94;;;4.79;100.00
20622;BME280;10470;42.670;23.354;2022-11-30T03:25:47;94906.13;;;4.86;100.00
20622;BME280;10470;42.670;23.354;2022-11-30T03:28:13;94899.91;;;4.89;100.00
20622;BME280;10470;42.670;23.354;2022-11-30T03:30:38;94897.56;;;4.91;100.00
20622;BME280;10470;42.670;23.354;2022-11-30T03:33:03;94895.31;;;4.86;100.00
20622;BME280;10470;42.670;23.354;2022-11-30T03:35:29;94900.00;;;4.81;100.00
20622;BME280;10470;42.670;23.354;2022-11-30T03:37:54;94894.50;;;4.89;100.00
20622;BME280;10470;42.670;23.354;2022-11-30T03:40:20;94897.59;;;4.87;100.00
20622;BME280;10470;42.670;23.354;2022-11-30T03:42:45;94898.34;;;4.88;100.00
20622;BME280;10470;42.670;23.354;2022-11-30T03:45:10;94891.34;;;4.94;100.00
20622;BME280;10470;42.670;23.354;2022-11-30T03:47:36;94891.69;;;4.69;100.00
20622;BME280;10470;42.670;23.354;2022-11-30T03:50:02;94894.34;;;4.72;100.00
20622;BME280;10470;42.670;23.354;2022-11-30T03:52:28;94901.19;;;4.80;100.00
20622;BME280;10470;42.670;23.354;2022-11-30T03:54:54;94899.25;;;4.81;100.00
20622;BME280;10470;42.670;23.354;2022-11-30T03:57:19;94903.22;;;4.73;100.00
20622;BME280;10470;42.670;23.354;2022-11-30T03:59:44;94900.88;;;4.75;100.00
20622;BME280;10470;42.670;23.354;2022-11-30T04:02:10;94901.28;;;4.73;100.00
20622;BME280;10470;42.670;23.354;2022-11-30T04:04:36;94902.47;;;4.69;100.00
20622;BME280;10470;42.670;23.354;2022-11-30T04:07:01;94898.06;;;4.82;100.00
20622;BME280;10470;42.670;23.354;2022-11-30T04:09:26;94906.81;;;4.63;100.00
20622;BME280;10470;42.670;23.354;2022-11-30T04:11:52;94904.13;;;4.63;100.00
20622;BME280;10470;42.670;23.354;2022-11-30T04:14:17;94902.63;;;4.58;100.00
20622;BME280;10470;42.670;23.354;2022-11-30T04:16:43;94898.72;;;4.63;100.00
20622;BME280;10470;42.670;23.354;2022-11-30T04:19:08;94893.47;;;4.79;100.00
20622;BME280;10470;42.670;23.354;2022-11-30T04:21:33;94896.31;;;4.68;100.00
20622;BME280;10470;42.670;23.354;2022-11-30T04:23:59;94899.78;;;4.69;100.00
20622;BME280;10470;42.670;23.354;2022-11-30T04:26:24;94909.31;;;4.77;100.00
20622;BME280;10470;42.670;23.354;2022-11-30T04:28:50;94910.34;;;4.56;100.00
20622;BME280;10470;42.670;23.354;2022-11-30T04:31:15;94916.34;;;4.71;100.00
20622;BME280;10470;42.670;23.354;2022-11-30T04:33:41;94918.06;;;4.57;100.00
20622;BME280;10470;42.670;23.354;2022-11-30T04:36:17;94912.50;;;4.68;100.00
20622;BME280;10470;42.670;23.354;2022-11-30T04:38:44;94912.13;;;4.70;100.00
20622;BME280;10470;42.670;23.354;2022-11-30T04:41:09;94908.56;;;4.76;100.00
20622;BME280;10470;42.670;23.354;2022-11-30T04:43:35;94897.13;;;4.65;100.00
20622;BME280;10470;42.670;23.354;2022-11-30T04:46:01;94905.53;;;4.71;100.00
20622;BME280;10470;42.670;23.354;2022-11-30T04:48:27;94913.41;;;4.58;100.00
20622;BME280;10470;42.670;23.354;2022-11-30T04:50:53;94900.91;;;4.71;100.00
20622;BME280;10470;42.670;23.354;2022-11-30T04:53:18;94904.41;;;4.68;100.00
20622;BME280;10470;42.670;23.354;2022-11-30T04:55:44;94887.63;;;4.57;100.00
20622;BME280;10470;42.670;23.354;2022-11-30T04:58:09;94909.22;;;4.53;100.00
20622;BME280;10470;42.670;23.354;2022-11-30T05:00:35;94914.75;;;4.73;100.00
20622;BME280;10470;42.670;23.354;2022-11-30T05:03:01;94924.25;;;4.54;100.00
20622;BME280;10470;42.670;23.354;2022-11-30T05:05:26;94914.84;;;4.66;100.00
20622;BME280;10470;42.670;23.354;2022-11-30T05:07:57;94916.69;;;4.42;100.00
20622;BME280;10470;42.670;23.354;2022-11-30T05:10:23;94911.91;;;4.57;100.00
20622;BME280;10470;42.670;23.354;2022-11-30T05:12:49;94918.00;;;4.61;100.00
20622;BME280;10470;42.670;23.354;2022-11-30T05:15:15;94909.22;;;4.53;100.00
20622;BME280;10470;42.670;23.354;2022-11-30T05:17:40;94915.28;;;4.65;100.00
20622;BME280;10470;42.670;23.354;2022-11-30T05:20:06;94922.47;;;4.41;100.00
20622;BME280;10470;42.670;23.354;2022-11-30T05:22:32;94927.19;;;4.67;100.00
20622;BME280;10470;42.670;23.354;2022-11-30T05:24:59;94932.00;;;4.52;100.00
20622;BME280;10470;42.670;23.354;2022-11-30T05:27:24;94923.75;;;4.32;100.00
20622;BME280;10470;42.670;23.354;2022-11-30T05:29:50;94922.34;;;4.51;100.00
20622;BME280;10470;42.670;23.354;2022-11-30T05:32:16;94921.00;;;4.67;100.00
20622;BME280;10470;42.670;23.354;2022-11-30T05:34:41;94912.13;;;4.70;100.00
20622;BME280;10470;42.670;23.354;2022-11-30T05:37:07;94920.06;;;4.80;100.00
20622;BME280;10470;42.670;23.354;2022-11-30T05:39:32;94921.00;;;4.67;100.00
20622;BME280;10470;42.670;23.354;2022-11-30T05:41:58;94929.88;;;4.67;100.00
20622;BME280;10470;42.670;23.354;2022-11-30T05:44:23;94922.56;;;4.68;100.00
20622;BME280;10470;42.670;23.354;2022-11-30T05:46:49;94932.44;;;4.78;100.00
20622;BME280;10470;42.670;23.354;2022-11-30T05:49:14;94934.28;;;4.85;100.00
20622;BME280;10470;42.670;23.354;2022-11-30T05:51:40;94935.44;;;4.84;100.00
20622;BME280;10470;42.670;23.354;2022-11-30T05:54:05;94937.69;;;4.89;100.00
20622;BME280;10470;42.670;23.354;2022-11-30T05:56:31;94939.94;;;4.94;100.00
20622;BME280;10470;42.670;23.354;2022-11-30T05:58:56;94936.13;;;4.91;100.00
20622;BME280;10470;42.670;23.354;2022-11-30T06:01:24;94949.00;;;5.07;100.00
20622;BME280;10470;42.670;23.354;2022-11-30T06:03:51;94943.69;;;5.03;100.00
20622;BME280;10470;42.670;23.354;2022-11-30T06:06:17;94950.66;;;5.01;100.00
20622;BME280;10470;42.670;23.354;2022-11-30T06:08:43;94953.38;;;4.97;100.00
20622;BME280;10470;42.670;23.354;2022-11-30T06:11:09;94957.56;;;5.02;100.00
20622;BME280;10470;42.670;23.354;2022-11-30T06:13:35;94962.97;;;5.02;100.00
20622;BME280;10470;42.670;23.354;2022-11-30T06:16:01;94965.63;;;5.06;100.00
20622;BME280;10470;42.670;23.354;2022-11-30T06:18:28;94972.66;;;4.99;100.00
20622;BME280;10470;42.670;23.354;2022-11-30T06:20:53;94978.81;;;5.00;100.00
20622;BME280;10470;42.670;23.354;2022-11-30T06:23:19;94973.16;;;5.18;100.00
20622;BME280;10470;42.670;23.354;2022-11-30T06:25:45;94982.84;;;5.15;100.00
20622;BME280;10470;42.670;23.354;2022-11-30T06:28:10;94977.81;;;5.17;100.00
20622;BME280;10470;42.670;23.354;2022-11-30T06:30:36;94980.28;;;5.32;100.00
20622;BME280;10470;42.670;23.354;2022-11-30T06:33:02;94972.56;;;5.34;100.00
20622;BME280;10470;42.670;23.354;2022-11-30T06:35:28;94983.41;;;5.30;100.00
20622;BME280;10470;42.670;23.354;2022-11-30T06:37:53;94970.38;;;5.25;100.00
20622;BME280;10470;42.670;23.354;2022-11-30T06:40:19;94976.06;;;5.03;100.00
20622;BME280;10470;42.670;23.354;2022-11-30T06:42:44;94986.38;;;5.12;100.00
20622;BME280;10470;42.670;23.354;2022-11-30T06:45:10;94997.94;;;5.13;100.00
20622;BME280;10470;42.670;23.354;2022-11-30T06:47:36;94999.06;;;5.15;100.00
20622;BME280;10470;42.670;23.354;2022-11-30T06:50:02;95001.75;;;5.15;100.00
20622;BME280;10470;42.670;23.354;2022-11-30T06:52:32;95002.13;;;5.17;100.00
20622;BME280;10470;42.670;23.354;2022-11-30T06:54:58;94993.56;;;5.22;100.00
20622;BME280;10470;42.670;23.354;2022-11-30T06:57:27;94990.56;;;4.86;100.00
20622;BME280;10470;42.670;23.354;2022-11-30T06:59:54;94979.63;;;4.97;100.00
20622;BME280;10470;42.670;23.354;2022-11-30T07:02:19;94993.75;;;5.08;100.00
20622;BME280;10470;42.670;23.354;2022-11-30T07:04:45;94998.38;;;5.08;100.00
20622;BME280;10470;42.670;23.354;2022-11-30T07:07:10;94981.97;;;4.95;100.00
20622;BME280;10470;42.670;23.354;2022-11-30T07:09:36;94990.56;;;5.17;100.00
20622;BME280;10470;42.670;23.354;2022-11-30T07:12:02;94993.41;;;5.06;100.00
20622;BME280;10470;42.670;23.354;2022-11-30T07:14:28;94989.91;;;5.06;100.00
20622;BME280;10470;42.670;23.354;2022-11-30T07:16:55;94989.06;;;5.12;100.00
20622;BME280;10470;42.670;23.354;2022-11-30T07:19:21;94989.59;;;5.00;100.00
20622;BME280;10470;42.670;23.354;2022-11-30T07:21:46;94988.91;;;4.96;100.00
20622;BME280;10470;42.670;23.354;2022-11-30T07:24:12;94987.28;;;5.02;100.00
20622;BME280;10470;42.670;23.354;2022-11-30T07:27:01;94991.53;;;4.99;100.00
20622;BME280;10470;42.670;23.354;2022-11-30T07:29:27;94994.84;;;4.84;100.00
20622;BME280;10470;42.670;23.354;2022-11-30T07:31:53;94986.91;;;5.00;100.00
20622;BME280;10470;42.670;23.354;2022-11-30T07:34:19;94995.50;;;4.91;100.00
20622;BME280;10470;42.670;23.354;2022-11-30T07:36:45;94997.72;;;5.00;100.00
20622;BME280;10470;42.670;23.354;2022-11-30T07:39:11;94988.69;;;4.83;100.00
20622;BME280;10470;42.670;23.354;2022-11-30T07:41:38;94995.00;;;5.00;100.00
20622;BME280;10470;42.670;23.354;2022-11-30T07:44:04;94975.81;;;4.94;100.00
20622;BME280;10470;42.670;23.354;2022-11-30T07:46:30;94976.53;;;4.98;100.00
20622;BME280;10470;42.670;23.354;2022-11-30T07:49:00;94987.03;;;5.20;100.00
20622;BME280;10470;42.670;23.354;2022-11-30T07:51:26;94982.09;;;5.15;100.00
20622;BME280;10470;42.670;23.354;2022-11-30T07:53:54;94994.78;;;5.18;100.00
20622;BME280;10470;42.670;23.354;2022-11-30T07:56:20;94983.59;;;5.16;100.00
20622;BME280;10470;42.670;23.354;2022-11-30T07:58:46;94978.41;;;5.29;100.00
20622;BME280;10470;42.670;23.354;2022-11-30T08:01:15;94983.25;;;5.41;100.00
20622;BME280;10470;42.670;23.354;2022-11-30T08:03:40;94974.16;;;5.55;100.00
20622;BME280;10470;42.670;23.354;2022-11-30T08:06:12;94981.25;;;5.21;100.00
20622;BME280;10470;42.670;23.354;2022-11-30T08:08:41;94974.91;;;5.32;100.00
20622;BME280;10470;42.670;23.354;2022-11-30T08:11:09;94985.22;;;5.40;100.00
20622;BME280;10470;42.670;23.354;2022-11-30T08:13:35;94980.16;;;5.42;100.00
20622;BME280;10470;42.670;23.354;2022-11-30T08:16:06;94987.69;;;5.55;100.00
20622;BME280;10470;42.670;23.354;2022-11-30T08:18:32;94989.59;;;5.58;100.00
20622;BME280;10470;42.670;23.354;2022-11-30T08:20:58;94990.34;;;5.58;100.00
20622;BME280;10470;42.670;23.354;2022-11-30T08:23:28;94998.44;;;5.58;100.00
20622;BME280;10470;42.670;23.354;2022-11-30T08:25:54;94986.56;;;5.52;100.00
20622;BME280;10470;42.670;23.354;2022-11-30T08:28:19;95001.91;;;5.59;100.00
20622;BME280;10470;42.670;23.354;2022-11-30T08:30:44;94994.22;;;5.57;100.00
20622;BME280;10470;42.670;23.354;2022-11-30T08:33:10;95001.09;;;5.62;100.00
20622;BME280;10470;42.670;23.354;2022-11-30T08:36:13;95004.72;;;5.52;100.00
20622;BME280;10470;42.670;23.354;2022-11-30T08:39:00;95004.53;;;5.66;100.00
20622;BME280;10470;42.670;23.354;2022-11-30T08:41:29;95003.34;;;5.67;100.00
20622;BME280;10470;42.670;23.354;2022-11-30T08:43:55;95003.34;;;5.67;100.00
20622;BME280;10470;42.670;23.354;2022-11-30T08:46:22;95010.41;;;5.84;100.00
20622;BME280;10470;42.670;23.354;2022-11-30T08:48:49;95006.53;;;5.85;100.00
20622;BME280;10470;42.670;23.354;2022-11-30T08:51:16;95000.47;;;5.78;100.00
20622;BME280;10470;42.670;23.354;2022-11-30T08:53:42;94986.09;;;5.57;100.00
20622;BME280;10470;42.670;23.354;2022-11-30T08:56:13;95000.63;;;5.67;100.00
20622;BME280;10470;42.670;23.354;2022-11-30T08:58:40;94990.53;;;5.71;100.00
20622;BME280;10470;42.670;23.354;2022-11-30T09:03:35;95001.94;;;5.82;100.00
20622;BME280;10470;42.670;23.354;2022-11-30T09:06:13;95005.34;;;5.86;100.00
20622;BME280;10470;42.670;23.354;2022-11-30T09:08:41;95003.81;;;5.85;100.00
20622;BME280;10470;42.670;23.354;2022-11-30T09:13:33;95013.38;;;5.94;100.00
20622;BME280;10470;42.670;23.354;2022-11-30T09:15:58;95002.53;;;5.94;100.00
20622;BME280;10470;42.670;23.354;2022-11-30T09:18:24;95013.47;;;5.86;100.00
20622;BME280;10470;42.670;23.354;2022-11-30T09:20:49;95015.19;;;6.00;100.00
20622;BME280;10470;42.670;23.354;2022-11-30T09:23:14;95016.34;;;5.99;100.00
20622;BME280;10470;42.670;23.354;2022-11-30T09:25:40;95017.66;;;6.15;100.00
20622;BME280;10470;42.670;23.354;2022-11-30T09:28:06;95021.31;;;6.04;100.00
20622;BME280;10470;42.670;23.354;2022-11-30T09:30:31;95021.25;;;6.08;100.00
20622;BME280;10470;42.670;23.354;2022-11-30T09:32:58;95015.97;;;6.01;100.00
20622;BME280;10470;42.670;23.354;2022-11-30T09:35:24;95028.72;;;6.00;100.00
20622;BME280;10470;42.670;23.354;2022-11-30T09:37:51;95029.31;;;6.11;100.00
20622;BME280;10470;42.670;23.354;2022-11-30T09:40:19;95026.72;;;6.04;100.00
20622;BME280;10470;42.670;23.354;2022-11-30T09:45:22;95025.91;;;6.07;100.00
20622;BME280;10470;42.670;23.354;2022-11-30T09:50:25;95024.97;;;6.18;100.00
20622;BME280;10470;42.670;23.354;2022-11-30T09:53:01;95028.97;;;6.33;100.00
20622;BME280;10470;42.670;23.354;2022-11-30T09:55:41;95035.81;;;6.38;100.00
20622;BME280;10470;42.670;23.354;2022-11-30T09:58:48;95032.28;;;6.41;100.00
20622;BME280;10470;42.670;23.354;2022-11-30T10:01:17;95028.44;;;6.38;100.00
20622;BME280;10470;42.670;23.354;2022-11-30T10:03:43;95023.69;;;6.46;100.00
20622;BME280;10470;42.670;23.354;2022-11-30T10:09:22;95020.00;;;6.56;100.00
20622;BME280;10470;42.670;23.354;2022-11-30T10:11:53;95009.94;;;6.37;100.00
20622;BME280;10470;42.670;23.354;2022-11-30T10:14:45;95018.25;;;6.26;100.00
20622;BME280;10470;42.670;23.354;2022-11-30T10:17:33;95013.00;;;6.39;100.00
20622;BME280;10470;42.670;23.354;2022-11-30T10:20:12;95014.69;;;6.52;100.00
20622;BME280;10470;42.670;23.354;2022-11-30T10:28:17;95012.84;;;6.26;100.00
20622;BME280;10470;42.670;23.354;2022-11-30T10:30:44;95007.63;;;6.15;100.00
20622;BME280;10470;42.670;23.354;2022-11-30T10:33:24;94980.22;;;6.13;100.00
20622;BME280;10470;42.670;23.354;2022-11-30T10:35:52;95000.00;;;6.30;100.00
20622;BME280;10470;42.670;23.354;2022-11-30T10:41:00;94995.22;;;6.38;100.00
20622;BME280;10470;42.670;23.354;2022-11-30T10:43:34;94984.38;;;6.18;100.00
20622;BME280;10470;42.670;23.354;2022-11-30T10:46:02;94986.06;;;6.31;100.00
20622;BME280;10470;42.670;23.354;2022-11-30T10:48:42;94992.91;;;6.16;100.00
20622;BME280;10470;42.670;23.354;2022-11-30T10:51:10;94994.94;;;6.32;100.00
20622;BME280;10470;42.670;23.354;2022-11-30T10:53:36;94996.28;;;6.44;100.00
20622;BME280;10470;42.670;23.354;2022-11-30T10:56:10;94992.34;;;6.25;100.00
20622;BME280;10470;42.670;23.354;2022-11-30T10:58:39;94977.72;;;6.22;100.00
20622;BME280;10470;42.670;23.354;2022-11-30T11:01:10;94988.94;;;6.44;100.00
20622;BME280;10470;42.670;23.354;2022-11-30T11:04:16;94982.84;;;6.17;100.00
20622;BME280;10470;42.670;23.354;2022-11-30T11:12:04;94973.00;;;6.26;100.00
20622;BME280;10470;42.670;23.354;2022-11-30T11:14:31;94972.44;;;6.15;100.00
20622;BME280;10470;42.670;23.354;2022-11-30T11:17:16;94964.19;;;6.22;100.00
20622;BME280;10470;42.670;23.354;2022-11-30T11:19:47;94968.00;;;6.25;100.00
20622;BME280;10470;42.670;23.354;2022-11-30T11:22:16;94971.53;;;6.22;100.00
20622;BME280;10470;42.670;23.354;2022-11-30T11:24:43;94972.47;;;6.35;100.00
20622;BME280;10470;42.670;23.354;2022-11-30T11:27:28;94970.19;;;6.33;100.00
20622;BME280;10470;42.670;23.354;2022-11-30T11:30:07;94943.44;;;6.16;100.00
20622;BME280;10470;42.670;23.354;2022-11-30T11:32:33;94970.94;;;6.34;100.00
20622;BME280;10470;42.670;23.354;2022-11-30T11:34:59;94967.47;;;6.33;100.00
20622;BME280;10470;42.670;23.354;2022-11-30T11:37:27;94963.66;;;6.31;100.00
20622;BME280;10470;42.670;23.354;2022-11-30T11:39:59;94967.59;;;6.26;100.00
20622;BME280;10470;42.670;23.354;2022-11-30T11:42:46;94971.44;;;6.29;100.00
20622;BME280;10470;42.670;23.354;2022-11-30T11:45:24;94970.88;;;6.38;100.00
20622;BME280;10470;42.670;23.354;2022-11-30T11:48:26;94979.63;;;6.45;100.00
20622;BME280;10470;42.670;23.354;2022-11-30T11:51:00;94976.88;;;6.49;100.00
20622;BME280;10470;42.670;23.354;2022-11-30T11:53:51;94969.47;;;6.29;100.00
20622;BME280;10470;42.670;23.354;2022-11-30T11:56:33;94968.63;;;6.32;100.00
20622;BME280;10470;42.670;23.354;2022-11-30T12:06:53;94977.91;;;6.55;100.00
20622;BME280;10470;42.670;23.354;2022-11-30T12:09:33;94974.44;;;6.54;100.00
20622;BME280;10470;42.670;23.354;2022-11-30T12:12:01;94973.56;;;6.38;100.00
20622;BME280;10470;42.670;23.354;2022-11-30T12:14:28;94980.53;;;6.59;100.00
20622;BME280;10470;42.670;23.354;2022-11-30T12:19:53;94983.78;;;6.50;100.00
20622;BME280;10470;42.670;23.354;2022-11-30T12:22:49;94986.34;;;6.37;100.00
20622;BME280;10470;42.670;23.354;2022-11-30T12:25:27;94980.25;;;6.33;100.00
20622;BME280;10470;42.670;23.354;2022-11-30T12:33:37;94982.25;;;6.29;100.00
20622;BME280;10470;42.670;23.354;2022-11-30T12:36:27;94989.53;;;6.32;100.00
20622;BME280;10470;42.670;23.354;2022-11-30T12:47:39;94991.84;;;6.33;100.00
20622;BME280;10470;42.670;23.354;2022-11-30T12:58:35;95006.31;;;6.43;100.00
20622;BME280;10470;42.670;23.354;2022-11-30T13:07:21;94979.47;;;6.32;100.00
20622;BME280;10470;42.670;23.354;2022-11-30T13:09:53;95008.16;;;6.50;100.00
20622;BME280;10470;42.670;23.354;2022-11-30T13:12:24;95002.25;;;6.55;100.00
20622;BME280;10470;42.670;23.354;2022-11-30T13:14:57;95000.59;;;6.61;100.00
20622;BME280;10470;42.670;23.354;2022-11-30T13:17:24;95002.47;;;6.64;100.00
20622;BME280;10470;42.670;23.354;2022-11-30T13:25:38;94997.88;;;6.41;100.00
20622;BME280;10470;42.670;23.354;2022-11-30T13:31:20;95004.09;;;6.38;100.00
20622;BME280;10470;42.670;23.354;2022-11-30T13:38:41;95003.94;;;6.49;100.00
20622;BME280;10470;42.670;23.354;2022-11-30T13:41:07;94997.69;;;6.52;100.00
20622;BME280;10470;42.670;23.354;2022-11-30T13:43:43;94996.09;;;6.54;100.00
20622;BME280;10470;42.670;23.354;2022-11-30T13:48:38;95001.03;;;6.60;100.00
20622;BME280;10470;42.670;23.354;2022-11-30T13:51:04;94995.31;;;6.54;100.00
20622;BME280;10470;42.670;23.354;2022-11-30T13:53:32;94987.97;;;6.54;100.00
20622;BME280;10470;42.670;23.354;2022-11-30T14:01:50;94990.88;;;6.44;100.00
20622;BME280;10470;42.670;23.354;2022-11-30T14:06:49;94995.03;;;6.48;100.00
20622;BME280;10470;42.670;23.354;2022-11-30T14:09:53;94989.47;;;6.36;100.00
20622;BME280;10470;42.670;23.354;2022-11-30T14:12:44;94981.66;;;6.41;100.00
20622;BME280;10470;42.670;23.354;2022-11-30T14:18:03;94985.22;;;6.34;100.00
20622;BME280;10470;42.670;23.354;2022-11-30T14:20:46;94982.66;;;6.27;100.00
20622;BME280;10470;42.670;23.354;2022-11-30T14:26:03;94986.13;;;6.28;100.00
20622;BME280;10470;42.670;23.354;2022-11-30T14:31:06;94987.59;;;6.32;100.00
20622;BME280;10470;42.670;23.354;2022-11-30T14:33:55;94991.00;;;6.37;100.00
20622;BME280;10470;42.670;23.354;2022-11-30T14:36:24;94991.47;;;6.31;100.00
20622;BME280;10470;42.670;23.354;2022-11-30T14:38:51;94987.66;;;6.29;100.00
20622;BME280;10470;42.670;23.354;2022-11-30T14:41:22;94985.44;;;6.24;100.00
20622;BME280;10470;42.670;23.354;2022-11-30T14:44:09;94981.22;;;6.43;100.00
20622;BME280;10470;42.670;23.354;2022-11-30T14:46:35;94985.59;;;6.37;100.00
20622;BME280;10470;42.670;23.354;2022-11-30T14:49:11;94991.06;;;6.33;100.00
20622;BME280;10470;42.670;23.354;2022-11-30T14:51:40;94985.06;;;6.22;100.00
20622;BME280;10470;42.670;23.354;2022-11-30T14:54:43;95005.47;;;6.26;100.00